Time;durP1;ratioP1;P1;durP2;ratioP2;P2;SDS_P1;SDS_P2;PMS_P1;PMS_P2;Temp;Humidity;BMP_temperature;BMP_pressure;BME280_temperature;BME280_humidity;BME280_pressure;Samples;Min_cycle;Max_cycle;Signal;HPM_P1;HPM_P2
2023/01/16 00:00:15;;;;;;;0.00;0.00;;;;;;;4.94;66.00;94498.06;4396377;32;20188;-60
2023/01/16 00:02:41;;;;;;;0.10;0.10;;;;;;;4.78;66.04;94502.69;4375256;32;20235;-60
2023/01/16 00:05:06;;;;;;;0.23;0.23;;;;;;;4.87;66.36;94500.22;4377470;32;20299;-59
2023/01/16 00:07:32;;;;;;;0.10;0.10;;;;;;;4.83;66.27;94492.91;4385261;32;20335;-59
2023/01/16 00:09:57;;;;;;;0.00;0.00;;;;;;;4.65;67.30;94484.94;4352921;32;20236;-60
2023/01/16 00:12:23;;;;;;;0.30;0.30;;;;;;;4.80;66.69;94488.19;4371662;32;20245;-59
2023/01/16 00:14:48;;;;;;;0.00;0.00;;;;;;;4.65;67.58;94474.41;4400389;32;20259;-59
2023/01/16 00:17:13;;;;;;;0.10;0.10;;;;;;;4.42;67.75;94476.72;4396236;32;20188;-60
2023/01/16 00:19:38;;;;;;;0.10;0.10;;;;;;;4.42;68.09;94465.44;4363398;32;20236;-60
2023/01/16 00:22:04;;;;;;;0.10;0.10;;;;;;;4.44;67.98;94461.47;4371373;32;20207;-60
2023/01/16 00:24:29;;;;;;;0.00;0.00;;;;;;;4.37;68.87;94466.25;4380083;32;20192;-60
2023/01/16 00:26:54;;;;;;;0.03;0.03;;;;;;;4.44;68.84;94455.44;4390298;32;20292;-60
2023/01/16 00:29:23;;;;;;;0.00;0.00;;;;;;;4.39;68.89;94451.00;4363504;32;20228;-59
2023/01/16 00:31:48;;;;;;;0.30;0.30;;;;;;;4.62;67.44;94444.22;4334299;32;20302;-60
2023/01/16 00:34:14;;;;;;;0.00;0.00;;;;;;;4.71;67.60;94445.22;4341980;32;20285;-60
2023/01/16 00:36:39;;;;;;;0.00;0.00;;;;;;;4.55;68.09;94443.00;4387228;32;20240;-60
2023/01/16 00:39:05;;;;;;;0.10;0.10;;;;;;;4.57;68.28;94446.94;4375242;32;20184;-61
2023/01/16 00:41:31;;;;;;;0.30;0.30;;;;;;;4.54;68.27;94434.34;4375544;32;20232;-60
2023/01/16 00:43:58;;;;;;;0.27;0.27;;;;;;;4.54;68.70;94431.72;4368114;32;20342;-61
2023/01/16 00:46:29;;;;;;;0.00;0.00;;;;;;;4.39;68.72;94429.22;4353952;32;20238;-60
2023/01/16 00:48:58;;;;;;;0.30;0.30;;;;;;;4.37;69.38;94426.09;4366425;32;20307;-59
2023/01/16 00:51:24;;;;;;;0.00;0.00;;;;;;;4.36;69.73;94420.06;4380006;32;20288;-60
2023/01/16 00:53:49;;;;;;;0.10;0.10;;;;;;;4.49;69.56;94418.62;4378219;32;20337;-60
2023/01/16 00:56:14;;;;;;;0.73;0.20;;;;;;;4.53;69.40;94413.63;4356696;32;20252;-60
2023/01/16 00:58:40;;;;;;;0.33;0.33;;;;;;;4.70;68.29;94413.97;4362857;32;20232;-60
2023/01/16 01:01:06;;;;;;;1.23;0.50;;;;;;;4.70;68.24;94406.87;4340407;32;20244;-60
2023/01/16 01:03:31;;;;;;;0.10;0.10;;;;;;;4.41;69.45;94406.87;4339197;32;20235;-59
2023/01/16 01:05:57;;;;;;;0.00;0.00;;;;;;;4.35;69.79;94401.97;4336821;32;20236;-60
2023/01/16 01:08:23;;;;;;;0.00;0.00;;;;;;;4.43;69.74;94398.72;4343303;32;20231;-60
2023/01/16 01:10:49;;;;;;;0.20;0.20;;;;;;;4.47;69.25;94395.28;4334925;32;20317;-60
2023/01/16 01:13:14;;;;;;;0.00;0.00;;;;;;;4.29;69.89;94388.09;4377537;32;20219;-60
2023/01/16 01:15:39;;;;;;;0.10;0.10;;;;;;;4.46;69.54;94388.47;4382415;32;20214;-60
2023/01/16 01:18:05;;;;;;;0.10;0.10;;;;;;;4.27;70.21;94384.19;4388661;32;20196;-60
2023/01/16 01:20:30;;;;;;;0.07;0.07;;;;;;;4.34;69.98;94382.81;4388529;32;20259;-60
2023/01/16 01:22:57;;;;;;;0.00;0.00;;;;;;;4.48;69.80;94373.22;4373558;32;20201;-62
2023/01/16 01:25:23;;;;;;;0.30;0.30;;;;;;;4.23;70.35;94373.44;4361480;32;20197;-63
2023/01/16 01:27:48;;;;;;;0.10;0.10;;;;;;;4.37;70.14;94363.06;4369889;32;20461;-62
2023/01/16 01:30:14;;;;;;;0.00;0.00;;;;;;;4.16;70.64;94366.97;4366634;32;20208;-62
2023/01/16 01:32:39;;;;;;;0.00;0.00;;;;;;;4.16;71.42;94366.97;4366889;32;20321;-62
2023/01/16 01:35:08;;;;;;;0.00;0.00;;;;;;;4.19;71.00;94361.16;4343005;32;20239;-62
2023/01/16 01:37:35;;;;;;;0.00;0.00;;;;;;;4.04;71.20;94355.00;4330293;32;20236;-62
2023/01/16 01:40:01;;;;;;;0.00;0.00;;;;;;;4.30;70.84;94346.88;4327111;32;20406;-62
2023/01/16 01:42:59;;;;;;;0.30;0.30;;;;;;;4.23;71.11;94351.66;4344613;32;20299;-62
2023/01/16 01:45:29;;;;;;;0.10;0.10;;;;;;;4.64;69.07;94337.06;4351580;32;20301;-62
2023/01/16 01:48:12;;;;;;;0.00;0.00;;;;;;;4.73;68.56;94340.66;4335091;32;20285;-62
2023/01/16 01:50:38;;;;;;;0.30;0.30;;;;;;;4.56;68.73;94335.06;4352891;32;20323;-62
2023/01/16 01:53:29;;;;;;;0.00;0.00;;;;;;;4.45;69.17;94337.00;4349817;32;20335;-62
2023/01/16 01:55:57;;;;;;;0.10;0.10;;;;;;;4.62;68.67;94330.53;4372093;32;20233;-62
2023/01/16 01:58:27;;;;;;;0.20;0.20;;;;;;;4.71;68.24;94311.25;4359030;32;20280;-62
2023/01/16 02:00:57;;;;;;;0.30;0.30;;;;;;;4.72;67.82;94309.41;4358641;32;20311;-63
2023/01/16 02:03:32;;;;;;;0.23;0.07;;;;;;;4.73;68.11;94303.88;4353018;32;20327;-62
2023/01/16 02:06:00;;;;;;;0.00;0.00;;;;;;;4.63;67.99;94296.09;4385468;32;20308;-63
2023/01/16 02:08:31;;;;;;;0.00;0.00;;;;;;;4.76;67.88;94300.69;4384635;32;20298;-62
2023/01/16 02:10:58;;;;;;;0.10;0.10;;;;;;;4.80;67.64;94296.41;4387436;32;20288;-63
2023/01/16 02:13:24;;;;;;;0.10;0.10;;;;;;;4.54;68.25;94292.53;4379358;32;20320;-62
2023/01/16 02:21:44;;;;;;;0.20;0.20;;;;;;;4.52;68.65;94276.28;4367907;32;20303;-62
2023/01/16 02:24:31;;;;;;;0.20;0.20;;;;;;;4.25;70.26;94270.81;4364057;32;20379;-62
2023/01/16 02:27:10;;;;;;;0.20;0.20;;;;;;;4.02;71.78;94261.87;4355204;32;20362;-62
2023/01/16 02:30:04;;;;;;;0.10;0.10;;;;;;;4.05;71.79;94262.09;4359166;32;20295;-62
2023/01/16 02:32:35;;;;;;;0.20;0.20;;;;;;;4.24;71.23;94254.28;4374838;32;20328;-62
2023/01/16 02:35:09;;;;;;;0.10;0.10;;;;;;;4.14;71.54;94243.91;4370255;32;20292;-62
2023/01/16 02:37:47;;;;;;;0.20;0.20;;;;;;;4.21;71.37;94243.56;4365896;32;20288;-62
2023/01/16 02:40:38;;;;;;;0.13;0.13;;;;;;;4.18;71.33;94233.63;4356971;32;20367;-62
2023/01/16 02:43:15;;;;;;;0.40;0.40;;;;;;;4.00;72.20;94233.28;4365379;32;20284;-62
2023/01/16 02:45:43;;;;;;;0.03;0.03;;;;;;;4.11;71.94;94229.50;4371818;32;20331;-62
2023/01/16 02:48:20;;;;;;;0.00;0.00;;;;;;;4.17;71.76;94224.19;4379922;32;20299;-62
2023/01/16 02:51:03;;;;;;;0.03;0.03;;;;;;;4.05;71.98;94228.00;4372304;32;20284;-62
2023/01/16 02:53:36;;;;;;;0.10;0.10;;;;;;;4.00;72.01;94222.78;4367557;32;20312;-63
2023/01/16 02:56:14;;;;;;;0.00;0.00;;;;;;;4.26;70.91;94214.63;4379691;32;20288;-62
2023/01/16 02:58:45;;;;;;;0.20;0.20;;;;;;;3.84;72.50;94208.28;4366081;32;20338;-62
2023/01/16 03:01:11;;;;;;;0.00;0.00;;;;;;;3.89;72.61;94210.06;4369559;32;20285;-62
2023/01/16 03:03:39;;;;;;;0.00;0.00;;;;;;;4.16;71.76;94204.28;4372159;32;20295;-63
2023/01/16 03:06:25;;;;;;;0.00;0.00;;;;;;;3.95;72.20;94204.47;4380369;32;20298;-62
2023/01/16 03:09:23;;;;;;;0.30;0.30;;;;;;;4.06;72.23;94190.19;4369866;32;20306;-62
2023/01/16 03:12:13;;;;;;;0.00;0.00;;;;;;;3.76;72.85;94193.13;4369996;32;20379;-61
2023/01/16 03:14:58;;;;;;;0.40;0.40;;;;;;;3.99;72.81;94187.13;4350560;32;20323;-62
2023/01/16 03:17:35;;;;;;;0.50;0.30;;;;;;;3.94;72.57;94176.69;4340016;32;20284;-60
2023/01/16 03:20:09;;;;;;;0.00;0.00;;;;;;;3.84;73.00;94166.31;4374873;32;20288;-60
2023/01/16 03:23:03;;;;;;;0.00;0.00;;;;;;;3.76;72.93;94165.06;4365825;32;20335;-61
2023/01/16 03:25:38;;;;;;;0.00;0.00;;;;;;;3.68;73.26;94162.28;4364234;32;20304;-60
2023/01/16 03:28:41;;;;;;;0.20;0.20;;;;;;;3.89;72.58;94147.91;4360228;32;20338;-61
2023/01/16 03:31:15;;;;;;;0.00;0.00;;;;;;;3.77;72.51;94140.41;4360723;32;20295;-61
2023/01/16 03:33:58;;;;;;;0.10;0.10;;;;;;;3.77;72.78;94131.75;4366105;32;20299;-61
2023/01/16 03:36:33;;;;;;;0.20;0.20;;;;;;;4.00;71.93;94125.72;4377044;32;20280;-61
2023/01/16 03:39:02;;;;;;;0.00;0.00;;;;;;;4.02;71.62;94120.97;4368212;32;20289;-61
2023/01/16 03:41:30;;;;;;;0.00;0.00;;;;;;;4.02;71.81;94123.59;4359286;32;20370;-60
2023/01/16 03:44:02;;;;;;;0.37;0.37;;;;;;;3.52;73.15;94117.13;4350611;32;20311;-60
2023/01/16 03:46:37;;;;;;;0.00;0.00;;;;;;;3.72;72.98;94116.09;4360950;32;20284;-61
2023/01/16 03:49:09;;;;;;;0.00;0.00;;;;;;;3.67;73.01;94103.81;4368808;32;20292;-61
2023/01/16 03:51:41;;;;;;;0.10;0.10;;;;;;;3.67;72.99;94097.81;4371382;32;20371;-61
2023/01/16 03:54:40;;;;;;;0.00;0.00;;;;;;;3.69;72.87;94093.06;4370459;32;20291;-60
2023/01/16 03:57:22;;;;;;;0.27;0.27;;;;;;;3.77;72.89;94087.19;4374683;32;20303;-60
2023/01/16 03:59:50;;;;;;;0.27;0.27;;;;;;;3.80;72.76;94086.63;4375211;32;20351;-60
2023/01/16 04:02:22;;;;;;;0.00;0.00;;;;;;;3.75;72.60;94073.56;4377423;32;20300;-61
2023/01/16 04:05:13;;;;;;;0.00;0.00;;;;;;;3.91;72.27;94067.09;4350428;32;20316;-61
2023/01/16 04:07:44;;;;;;;0.10;0.10;;;;;;;3.69;73.06;94053.72;4369368;32;20315;-60
2023/01/16 04:10:15;;;;;;;0.13;0.13;;;;;;;3.92;72.62;94058.16;4357279;32;20347;-61
2023/01/16 04:12:48;;;;;;;0.00;0.00;;;;;;;3.63;74.03;94060.09;4373979;32;20336;-61
2023/01/16 04:15:17;;;;;;;0.10;0.10;;;;;;;3.45;74.54;94049.28;4363378;32;20358;-60
2023/01/16 04:17:42;;;;;;;0.00;0.00;;;;;;;3.21;75.94;94048.50;4361144;32;20327;-60
2023/01/16 04:20:09;;;;;;;0.00;0.00;;;;;;;3.04;76.54;94045.53;4365533;32;20292;-60
2023/01/16 04:22:34;;;;;;;0.10;0.10;;;;;;;3.06;76.76;94043.44;4390124;32;20200;-60
2023/01/16 04:25:03;;;;;;;0.30;0.30;;;;;;;3.24;76.30;94032.22;4388394;32;20392;-61
2023/01/16 04:27:29;;;;;;;0.00;0.00;;;;;;;3.33;75.60;94025.28;4384419;32;20191;-61
2023/01/16 04:29:55;;;;;;;0.00;0.00;;;;;;;3.34;75.79;94015.59;4364897;32;20328;-60
2023/01/16 04:32:20;;;;;;;0.03;0.03;;;;;;;3.17;76.29;94007.41;4363902;32;20257;-60
2023/01/16 04:34:46;;;;;;;0.50;0.33;;;;;;;3.52;75.27;93990.50;4380813;32;20359;-61
2023/01/16 04:37:14;;;;;;;0.00;0.00;;;;;;;3.49;75.29;93985.81;4382478;32;20192;-61
2023/01/16 04:39:40;;;;;;;0.00;0.00;;;;;;;3.42;75.38;93981.69;4389717;32;20192;-60
2023/01/16 04:42:06;;;;;;;0.00;0.00;;;;;;;3.35;75.84;93973.38;4370654;32;20392;-60
2023/01/16 04:44:31;;;;;;;0.20;0.20;;;;;;;2.99;77.60;93967.00;4370492;32;20292;-61
2023/01/16 04:46:56;;;;;;;0.03;0.03;;;;;;;2.72;78.79;93959.69;4388067;32;20185;-60
2023/01/16 04:49:22;;;;;;;0.10;0.10;;;;;;;2.84;78.83;93954.88;4375666;32;20203;-61
2023/01/16 04:51:47;;;;;;;0.00;0.00;;;;;;;2.71;79.31;93945.03;4389305;32;20192;-60
2023/01/16 04:54:15;;;;;;;0.10;0.10;;;;;;;2.65;79.91;93946.19;4373823;32;20317;-61
2023/01/16 04:56:41;;;;;;;0.20;0.20;;;;;;;2.86;79.44;93939.66;4357318;32;20271;-60
2023/01/16 04:59:07;;;;;;;0.00;0.00;;;;;;;3.22;78.23;93923.53;4377110;32;20280;-60
2023/01/16 05:01:34;;;;;;;0.10;0.10;;;;;;;3.36;77.42;93919.91;4375522;32;20276;-60
2023/01/16 05:04:01;;;;;;;0.00;0.00;;;;;;;3.36;76.67;93919.91;4389205;32;20353;-61
2023/01/16 05:06:27;;;;;;;0.20;0.20;;;;;;;3.37;76.99;93910.22;4377566;32;20307;-60
2023/01/16 05:08:52;;;;;;;0.20;0.20;;;;;;;3.41;76.99;93901.50;4384494;32;20394;-61
2023/01/16 05:11:17;;;;;;;0.10;0.10;;;;;;;3.36;76.68;93903.41;4364501;32;20212;-60
2023/01/16 05:13:42;;;;;;;0.20;0.20;;;;;;;3.20;77.60;93894.19;4375067;32;20192;-61
2023/01/16 05:16:08;;;;;;;0.00;0.00;;;;;;;3.40;76.99;93881.59;4389548;32;20192;-60
2023/01/16 05:18:33;;;;;;;0.20;0.20;;;;;;;3.26;77.14;93891.25;4367019;32;20231;-60
2023/01/16 05:20:59;;;;;;;0.00;0.00;;;;;;;3.08;78.07;93890.16;4389215;32;20238;-64
2023/01/16 05:23:24;;;;;;;0.27;0.27;;;;;;;2.84;78.91;93886.00;4372853;32;20293;-60
2023/01/16 05:25:50;;;;;;;0.00;0.00;;;;;;;3.05;78.49;93882.88;4380829;32;20219;-60
2023/01/16 05:28:15;;;;;;;0.00;0.00;;;;;;;3.09;77.79;93872.63;4371864;32;20189;-60
2023/01/16 05:30:40;;;;;;;0.20;0.20;;;;;;;3.24;77.35;93866.37;4370735;32;20246;-60
2023/01/16 05:33:06;;;;;;;0.10;0.10;;;;;;;3.01;78.03;93868.00;4379345;32;20211;-61
2023/01/16 05:35:32;;;;;;;0.00;0.00;;;;;;;3.00;78.30;93861.19;4387051;32;20241;-60
2023/01/16 05:37:57;;;;;;;0.10;0.10;;;;;;;3.09;77.73;93849.03;4368556;32;20192;-60
2023/01/16 05:40:23;;;;;;;0.10;0.10;;;;;;;3.23;76.98;93846.47;4362792;32;20377;-61
2023/01/16 05:42:50;;;;;;;0.10;0.10;;;;;;;3.06;77.90;93845.13;4358122;32;20350;-61
2023/01/16 05:45:15;;;;;;;0.30;0.30;;;;;;;3.13;76.88;93842.16;4344723;32;20371;-61
2023/01/16 05:47:40;;;;;;;0.97;0.87;;;;;;;2.89;77.50;93830.97;4384191;32;20380;-60
2023/01/16 05:50:06;;;;;;;0.13;0.13;;;;;;;3.00;77.47;93832.38;4384489;32;20211;-61
2023/01/16 05:52:32;;;;;;;0.67;0.67;;;;;;;3.16;76.89;93820.63;4380318;32;20189;-60
2023/01/16 05:54:57;;;;;;;0.40;0.40;;;;;;;3.15;77.12;93819.06;4366496;32;20284;-60
2023/01/16 05:57:23;;;;;;;0.20;0.20;;;;;;;3.08;76.75;93813.44;4352191;32;20235;-60
2023/01/16 05:59:52;;;;;;;0.00;0.00;;;;;;;3.08;77.10;93802.94;4355239;32;20400;-60
2023/01/16 06:02:19;;;;;;;0.20;0.20;;;;;;;3.03;77.15;93801.16;4344744;32;20220;-60
2023/01/16 06:04:44;;;;;;;0.57;0.57;;;;;;;3.13;76.88;93797.63;4374637;32;20355;-60
2023/01/16 06:07:10;;;;;;;0.10;0.10;;;;;;;3.15;77.10;93798.09;4381796;32;20328;-60
2023/01/16 06:09:35;;;;;;;0.77;0.30;;;;;;;3.18;77.20;93789.69;4360051;32;20196;-60
2023/01/16 06:12:00;;;;;;;0.10;0.10;;;;;;;2.96;77.91;93794.72;4360132;32;20363;-61
2023/01/16 06:14:26;;;;;;;0.10;0.10;;;;;;;2.84;77.91;93781.28;4366459;32;20238;-61
2023/01/16 06:16:55;;;;;;;0.00;0.00;;;;;;;2.61;79.39;93777.66;4367651;32;20188;-60
2023/01/16 06:19:20;;;;;;;0.27;0.27;;;;;;;2.68;79.40;93771.03;4383661;32;20212;-61
2023/01/16 06:21:46;;;;;;;0.23;0.23;;;;;;;2.67;79.27;93756.38;4373718;32;20303;-60
2023/01/16 06:24:11;;;;;;;0.00;0.00;;;;;;;2.63;80.08;93747.53;4377696;32;20209;-60
2023/01/16 06:26:36;;;;;;;0.40;0.40;;;;;;;2.65;79.96;93740.16;4358317;32;20240;-61
2023/01/16 06:29:05;;;;;;;0.13;0.13;;;;;;;2.64;79.77;93730.75;4339636;32;20196;-60
2023/01/16 06:31:30;;;;;;;0.67;0.17;;;;;;;2.75;79.76;93719.06;4362182;32;20228;-61
2023/01/16 06:33:56;;;;;;;0.20;0.20;;;;;;;2.81;79.45;93705.91;4376013;32;20315;-60
2023/01/16 06:36:21;;;;;;;0.00;0.00;;;;;;;2.72;79.84;93701.31;4374401;32;20188;-60
2023/01/16 06:38:46;;;;;;;0.10;0.10;;;;;;;2.86;79.67;93692.75;4367939;32;20278;-61
2023/01/16 06:41:12;;;;;;;0.27;0.27;;;;;;;2.81;79.64;93693.59;4357690;32;20239;-61
2023/01/16 06:43:37;;;;;;;0.00;0.00;;;;;;;2.67;80.27;93684.91;4366399;32;20203;-60
2023/01/16 06:46:03;;;;;;;1.30;0.90;;;;;;;2.70;80.70;93681.75;4374218;32;20207;-61
2023/01/16 06:48:28;;;;;;;0.10;0.10;;;;;;;2.59;80.76;93678.47;4388714;32;20202;-61
2023/01/16 06:50:54;;;;;;;0.20;0.20;;;;;;;2.75;80.21;93673.78;4372494;32;20207;-61
2023/01/16 06:53:19;;;;;;;0.10;0.10;;;;;;;2.57;81.34;93664.91;4362432;32;20345;-60
2023/01/16 06:55:45;;;;;;;0.00;0.00;;;;;;;2.70;81.07;93656.31;4356558;32;20275;-60
2023/01/16 06:58:11;;;;;;;0.40;0.20;;;;;;;2.78;80.76;93651.50;4358115;32;20255;-60
2023/01/16 07:00:37;;;;;;;0.20;0.20;;;;;;;2.96;79.80;93640.22;4358966;32;20192;-61
2023/01/16 07:03:02;;;;;;;0.30;0.30;;;;;;;3.09;79.57;93621.94;4381847;32;20262;-60
2023/01/16 07:05:29;;;;;;;0.20;0.20;;;;;;;3.05;79.09;93620.16;4381008;32;20189;-61
2023/01/16 07:07:55;;;;;;;0.40;0.40;;;;;;;2.84;80.03;93613.72;4380382;32;20192;-60
2023/01/16 07:10:21;;;;;;;0.50;0.50;;;;;;;2.77;80.06;93608.84;4366607;32;20403;-60
2023/01/16 07:12:48;;;;;;;0.30;0.30;;;;;;;2.92;79.94;93608.59;4377231;32;20288;-60
2023/01/16 07:23:34;;;;;;;0.30;0.30;;;;;;;9.09;75.06;93560.69;4344470;32;20348;-45
2023/01/16 07:26:04;;;;;;;0.30;0.30;;;;;;;10.07;69.16;93546.38;4338522;32;20339;-48
2023/01/16 07:28:29;;;;;;;0.10;0.10;;;;;;;10.44;63.07;93549.00;4351816;32;20347;-48
2023/01/16 07:30:57;;;;;;;0.10;0.10;;;;;;;10.84;60.78;93555.03;4353495;32;20393;-48
2023/01/16 07:33:22;;;;;;;0.20;0.20;;;;;;;11.11;58.42;93558.03;4357777;32;20235;-49
2023/01/16 07:35:48;;;;;;;0.37;0.37;;;;;;;11.00;56.15;93542.63;4356148;32;20227;-46
2023/01/16 07:38:13;;;;;;;0.27;0.27;;;;;;;11.48;54.51;93538.09;4376996;32;20232;-49
2023/01/16 07:40:38;;;;;;;0.40;0.40;;;;;;;11.61;54.31;93528.97;4373940;32;20220;-48
2023/01/16 07:43:04;;;;;;;0.50;0.20;;;;;;;11.60;53.20;93524.75;4382007;32;20185;-47
2023/01/16 07:45:30;;;;;;;0.10;0.10;;;;;;;11.66;52.93;93512.75;4386814;32;20208;-53
2023/01/16 07:47:55;;;;;;;0.37;0.20;;;;;;;11.61;52.44;93507.72;4357722;32;20224;-49
2023/01/16 07:50:21;;;;;;;0.20;0.20;;;;;;;11.64;51.72;93496.38;4367544;32;20202;-48
2023/01/16 07:52:46;;;;;;;0.40;0.40;;;;;;;11.59;66.03;93486.03;4361264;32;20184;-49
2023/01/16 07:55:12;;;;;;;0.43;0.43;;;;;;;11.56;67.12;93489.38;4373142;32;20193;-48
2023/01/16 07:57:38;;;;;;;0.57;0.40;;;;;;;11.80;66.41;93479.69;4370552;32;20258;-49
2023/01/16 08:00:06;;;;;;;0.10;0.10;;;;;;;12.25;61.31;93477.25;4340046;32;20294;-50
2023/01/16 08:02:32;;;;;;;0.57;0.57;;;;;;;12.11;53.69;93460.22;4334567;32;20219;-47
2023/01/16 08:04:57;;;;;;;0.50;0.50;;;;;;;11.97;51.88;93461.47;4333121;32;20266;-58
2023/01/16 08:07:22;;;;;;;0.23;0.23;;;;;;;9.94;50.19;93457.47;4343566;32;20287;-57
2023/01/16 08:09:48;;;;;;;0.30;0.30;;;;;;;8.64;52.87;93453.03;4344151;32;20235;-59
2023/01/16 08:12:13;;;;;;;0.37;0.37;;;;;;;7.64;56.96;93453.22;4374596;32;20181;-58
2023/01/16 08:14:39;;;;;;;0.10;0.10;;;;;;;6.36;61.36;93445.53;4368034;32;20262;-58
2023/01/16 08:17:05;;;;;;;0.27;0.27;;;;;;;5.79;63.25;93445.72;4376720;32;20228;-59
2023/01/16 08:19:30;;;;;;;0.40;0.30;;;;;;;5.66;64.77;93433.47;4358660;32;20236;-63
2023/01/16 08:21:56;;;;;;;0.00;0.00;;;;;;;5.39;65.96;93431.91;4353651;32;20280;-57
2023/01/16 08:24:21;;;;;;;0.50;0.50;;;;;;;5.02;67.66;93430.56;4376858;32;20200;-58
2023/01/16 08:26:47;;;;;;;0.10;0.10;;;;;;;5.04;67.96;93429.19;4381669;32;20219;-58
2023/01/16 08:29:12;;;;;;;0.27;0.27;;;;;;;4.92;68.36;93428.22;4385120;32;20245;-58
2023/01/16 08:31:37;;;;;;;0.07;0.07;;;;;;;4.34;70.89;93434.47;4381499;32;20256;-58
2023/01/16 08:34:03;;;;;;;0.20;0.20;;;;;;;4.44;70.89;93413.97;4358898;32;20185;-59
2023/01/16 08:36:29;;;;;;;0.20;0.20;;;;;;;4.44;71.36;93400.06;4376903;32;20254;-58
2023/01/16 08:38:54;;;;;;;0.40;0.37;;;;;;;4.61;71.19;93399.38;4372451;32;20252;-58
2023/01/16 08:52:29;;;;;;;0.40;0.40;;;;;;;4.62;71.21;93359.69;4389282;32;20302;-59
2023/01/16 08:54:55;;;;;;;0.10;0.10;;;;;;;4.83;70.56;93338.87;4386277;32;20306;-57
2023/01/16 08:57:21;;;;;;;0.40;0.23;;;;;;;4.99;70.22;93336.62;4372551;32;20327;-59
2023/01/16 08:59:46;;;;;;;0.23;0.23;;;;;;;4.87;70.78;93329.31;4352612;32;20224;-57
2023/01/16 09:02:14;;;;;;;0.20;0.20;;;;;;;4.68;71.08;93319.09;4353137;32;20266;-59
2023/01/16 09:04:39;;;;;;;0.07;0.07;;;;;;;4.48;71.58;93314.41;4352650;32;20228;-57
2023/01/16 09:07:05;;;;;;;0.20;0.20;;;;;;;4.44;72.68;93319.47;4352246;32;20331;-56
2023/01/16 09:09:30;;;;;;;0.63;0.63;;;;;;;4.52;72.50;93307.47;4339007;32;20252;-58
2023/01/16 09:14:40;;;;;;;0.57;0.57;;;;;;;4.73;71.46;93297.16;4383252;32;20202;-57
2023/01/16 09:17:07;;;;;;;0.10;0.10;;;;;;;4.81;71.53;93284.03;4379429;32;20281;-58
2023/01/16 09:19:34;;;;;;;0.20;0.20;;;;;;;4.67;71.68;93277.38;4380884;32;20200;-58
2023/01/16 09:21:59;;;;;;;0.83;0.33;;;;;;;4.90;71.28;93278.03;4366390;32;20388;-59
2023/01/16 09:24:25;;;;;;;0.30;0.30;;;;;;;4.83;71.19;93274.00;4336202;32;20344;-58
2023/01/16 09:26:50;;;;;;;1.20;0.57;;;;;;;4.92;71.57;93271.37;4337725;32;20294;-57
2023/01/16 09:29:16;;;;;;;0.57;0.57;;;;;;;5.05;70.55;93261.78;4374001;32;20196;-57
2023/01/16 09:31:41;;;;;;;0.67;0.67;;;;;;;5.07;70.73;93252.53;4384056;32;20235;-54
2023/01/16 09:34:07;;;;;;;0.30;0.30;;;;;;;5.06;70.71;93248.34;4372757;32;20177;-58
2023/01/16 09:36:32;;;;;;;0.53;0.53;;;;;;;5.17;70.69;93249.59;4369871;32;20221;-59
2023/01/16 09:38:57;;;;;;;0.60;0.60;;;;;;;5.00;71.05;93240.94;4363734;32;20305;-58
2023/01/16 09:44:13;;;;;;;0.63;0.63;;;;;;;5.17;70.20;93231.19;4387319;32;20256;-60
2023/01/16 09:46:44;;;;;;;0.27;0.27;;;;;;;5.11;70.46;93223.78;4377635;32;20289;-59
2023/01/16 09:49:21;;;;;;;0.20;0.20;;;;;;;5.04;70.32;93215.59;4375660;32;20362;-58
2023/01/16 10:00:19;;;;;;;0.20;0.20;;;;;;;5.15;69.05;93185.28;4385833;32;20373;-58
2023/01/16 10:02:46;;;;;;;0.10;0.10;;;;;;;5.29;68.88;93172.72;4360407;32;20404;-59
2023/01/16 10:05:13;;;;;;;0.37;0.37;;;;;;;5.39;68.26;93166.38;4359353;32;20288;-60
2023/01/16 10:07:38;;;;;;;0.47;0.47;;;;;;;5.18;68.96;93153.91;4386506;32;20284;-59
2023/01/16 10:10:30;;;;;;;1.27;0.40;;;;;;;5.39;68.65;93140.87;4381515;32;20303;-59
2023/01/16 10:13:04;;;;;;;2.73;0.57;;;;;;;5.35;68.37;93137.31;4379508;32;20196;-59
2023/01/16 10:15:57;;;;;;;0.37;0.37;;;;;;;5.31;68.32;93125.87;4380961;32;20302;-58
2023/01/16 10:18:32;;;;;;;0.17;0.17;;;;;;;5.18;68.94;93106.59;4376952;32;20299;-59
2023/01/16 10:21:19;;;;;;;0.20;0.20;;;;;;;5.03;69.29;93098.44;4375274;32;20295;-61
2023/01/16 10:23:53;;;;;;;0.20;0.20;;;;;;;5.09;69.28;93089.31;4372040;32;20322;-62
2023/01/16 10:26:28;;;;;;;0.53;0.53;;;;;;;5.15;69.24;93074.91;4387064;32;20271;-62
2023/01/16 10:29:30;;;;;;;0.00;0.00;;;;;;;5.11;68.62;93061.62;4362194;32;20363;-59
2023/01/16 10:32:17;;;;;;;0.10;0.10;;;;;;;4.98;68.62;93056.59;4368717;32;20328;-60
2023/01/16 10:34:55;;;;;;;0.20;0.20;;;;;;;5.02;68.62;93058.25;4378501;32;20316;-58
2023/01/16 10:37:22;;;;;;;0.10;0.10;;;;;;;5.03;68.34;93048.53;4350361;32;20343;-60
2023/01/16 10:39:50;;;;;;;0.10;0.10;;;;;;;5.14;67.76;93041.84;4340761;32;20323;-60
2023/01/16 10:50:48;;;;;;;0.00;0.00;;;;;;;5.32;66.58;93011.00;4379081;32;20375;-61
2023/01/16 10:53:14;;;;;;;0.00;0.00;;;;;;;5.39;65.81;93017.31;4320068;32;20328;-60
2023/01/16 10:55:44;;;;;;;0.60;0.40;;;;;;;5.38;66.07;93010.50;4331810;32;20283;-60
2023/01/16 10:58:27;;;;;;;0.37;0.37;;;;;;;5.43;65.75;93007.69;4370115;32;20192;-58
2023/01/16 11:00:58;;;;;;;0.50;0.50;;;;;;;5.41;66.31;93001.97;4369805;32;20372;-64
2023/01/16 11:03:32;;;;;;;0.00;0.00;;;;;;;5.67;66.07;92995.78;4375460;32;20302;-57
2023/01/16 11:06:20;;;;;;;0.10;0.10;;;;;;;5.63;64.94;92979.09;4373056;32;20315;-60
2023/01/16 11:08:52;;;;;;;0.00;0.00;;;;;;;5.78;64.91;92965.41;4619994;27;20305;-58
2023/01/16 11:20:27;;;;;;;1.03;0.57;;;;;;;6.32;62.68;92947.75;4306258;33;20364;-59
2023/01/16 11:23:21;;;;;;;0.00;0.00;;;;;;;6.42;62.71;92941.34;4302452;32;20385;-58
2023/01/16 11:25:50;;;;;;;0.10;0.10;;;;;;;6.38;61.90;92935.16;4256544;33;20344;-58
2023/01/16 11:28:36;;;;;;;0.10;0.10;;;;;;;6.30;62.83;92938.66;4284710;33;20344;-58
2023/01/16 11:31:17;;;;;;;1.57;1.47;;;;;;;6.26;62.51;92922.72;4295745;33;20333;-61
2023/01/16 11:33:54;;;;;;;0.03;0.03;;;;;;;6.33;62.76;92904.53;4274771;33;20369;-58
2023/01/16 11:36:26;;;;;;;0.13;0.13;;;;;;;6.19;62.68;92899.59;4321355;32;20320;-56
2023/01/16 11:38:53;;;;;;;1.17;0.90;;;;;;;6.42;61.93;92886.81;4314191;32;20439;-57
2023/01/16 11:41:23;;;;;;;0.23;0.23;;;;;;;6.13;61.62;92889.59;4293162;33;20358;-59
2023/01/16 11:47:01;;;;;;;0.37;0.20;;;;;;;6.25;62.80;92870.41;4264616;33;20329;-58
2023/01/16 11:49:38;;;;;;;0.23;0.23;;;;;;;6.43;62.48;92867.28;4262542;33;20310;-60
2023/01/16 11:52:04;;;;;;;0.50;0.50;;;;;;;6.55;61.54;92861.25;4314155;33;20361;-53
2023/01/16 11:54:34;;;;;;;0.30;0.30;;;;;;;7.25;76.80;92846.03;4343125;32;20296;-54
2023/01/16 11:57:22;;;;;;;1.23;0.73;;;;;;;8.95;69.92;92842.50;4307743;32;20319;-54
2023/01/16 12:00:00;;;;;;;2.97;0.63;;;;;;;10.18;68.88;92810.94;4302650;32;20349;-56
2023/01/16 12:02:59;;;;;;;0.10;0.10;;;;;;;9.94;56.79;92796.13;4316522;32;20329;-53
2023/01/16 12:05:59;;;;;;;0.20;0.20;;;;;;;10.93;61.38;92810.25;4314066;32;20273;-55
2023/01/16 12:08:47;;;;;;;0.20;0.20;;;;;;;12.50;55.45;92802.22;4310524;32;20237;-55
2023/01/16 12:11:34;;;;;;;0.57;0.40;;;;;;;12.47;49.81;92797.66;4293132;32;20221;-59
2023/01/16 12:14:31;;;;;;;0.20;0.20;;;;;;;11.84;50.58;92805.78;4302021;32;20205;-55
2023/01/16 12:17:35;;;;;;;0.30;0.30;;;;;;;10.74;48.15;92797.09;4306689;33;20245;-58
2023/01/16 12:20:50;;;;;;;0.50;0.50;;;;;;;9.59;50.51;92798.84;4311035;32;20204;-58
2023/01/16 12:23:28;;;;;;;0.10;0.10;;;;;;;9.09;52.25;92798.97;4318504;32;20267;-59
2023/01/16 12:26:35;;;;;;;0.93;0.93;;;;;;;8.37;54.17;92798.47;4350611;32;20275;-58
2023/01/16 12:29:20;;;;;;;0.70;0.43;;;;;;;8.14;55.83;92796.38;4324922;32;20269;-55
2023/01/16 12:32:26;;;;;;;0.30;0.30;;;;;;;8.15;55.40;92797.16;4342202;32;20221;-58
2023/01/16 12:35:16;;;;;;;0.20;0.17;;;;;;;7.91;55.77;92787.50;4314803;32;20257;-58
2023/01/16 12:37:58;;;;;;;0.13;0.13;;;;;;;8.04;56.29;92785.59;4284844;32;20326;-58
2023/01/16 12:44:25;;;;;;;0.27;0.27;;;;;;;8.04;55.72;92781.06;4288554;32;20392;-58
2023/01/16 12:47:24;;;;;;;0.13;0.13;;;;;;;8.08;56.29;92781.16;4305741;32;20331;-59
2023/01/16 12:50:28;;;;;;;0.17;0.17;;;;;;;8.00;57.10;92772.28;4324318;32;20295;-59
2023/01/16 12:53:29;;;;;;;0.27;0.27;;;;;;;8.13;56.47;92773.72;4330020;32;20284;-58
2023/01/16 12:56:19;;;;;;;0.10;0.10;;;;;;;8.22;56.34;92766.44;4310698;32;20289;-55
2023/01/16 12:58:52;;;;;;;0.20;0.20;;;;;;;7.83;57.87;92765.47;4324800;32;20296;-58
2023/01/16 13:01:29;;;;;;;0.30;0.30;;;;;;;8.00;57.63;92758.31;4288502;32;20369;-59
2023/01/16 13:04:01;;;;;;;0.00;0.00;;;;;;;8.20;57.10;92768.63;4280256;33;20325;-59